createdAt,value
2023-04-11T00:00:41.199Z,85.20
2023-04-11T00:03:09.647Z,85.50
2023-04-11T00:05:37.555Z,85.60
2023-04-11T00:08:06.926Z,86.30
2023-04-11T00:10:34.895Z,86.50
2023-04-11T00:13:02.784Z,86.50
2023-04-11T00:15:32.574Z,86.90
2023-04-11T00:18:00.524Z,87.00
2023-04-11T00:20:28.390Z,87.50
2023-04-11T00:22:58.311Z,88.00
2023-04-11T00:25:29.895Z,88.20
2023-04-11T00:27:58.224Z,88.30
2023-04-11T00:30:26.070Z,88.10
2023-04-11T00:32:54.104Z,88.80
2023-04-11T00:35:22.099Z,88.60
2023-04-11T00:37:55.943Z,88.90
2023-04-11T00:40:23.822Z,88.50
2023-04-11T00:42:53.031Z,88.60
2023-04-11T00:45:21.014Z,89.10
2023-04-11T00:47:49.596Z,88.80
2023-04-11T00:50:18.274Z,88.30
2023-04-11T00:52:49.252Z,89.00
2023-04-11T00:55:17.632Z,89.10
2023-04-11T00:57:46.330Z,89.00
2023-04-11T01:00:16.834Z,89.00
2023-04-11T01:02:45.359Z,89.20
2023-04-11T01:05:14.834Z,89.00
2023-04-11T01:07:46.137Z,89.00
2023-04-11T01:10:15.775Z,89.40
2023-04-11T01:12:44.882Z,89.00
2023-04-11T01:15:13.042Z,89.20
2023-04-11T01:17:42.646Z,88.90
2023-04-11T01:20:13.087Z,89.30
2023-04-11T01:22:43.648Z,88.90
2023-04-11T01:25:15.692Z,88.70
2023-04-11T01:27:44.923Z,88.90
2023-04-11T01:30:13.835Z,88.60
2023-04-11T01:32:41.807Z,88.50
2023-04-11T01:35:11.160Z,88.60
2023-04-11T01:37:39.360Z,88.60
2023-04-11T01:40:08.690Z,88.30
2023-04-11T01:42:39.248Z,88.10
2023-04-11T01:45:08.825Z,88.30
2023-04-11T01:47:37.538Z,90.00
2023-04-11T01:50:06.889Z,88.40
2023-04-11T01:52:34.825Z,88.70
2023-04-11T01:55:02.708Z,88.40
2023-04-11T01:57:30.888Z,89.40
2023-04-11T02:00:00.200Z,88.60
2023-04-11T02:02:28.133Z,88.40
2023-04-11T02:04:55.980Z,88.40
2023-04-11T02:07:24.529Z,88.20
2023-04-11T02:09:52.379Z,88.20
2023-04-11T02:12:20.239Z,88.30
2023-04-11T02:14:49.330Z,88.90
2023-04-11T02:17:18.854Z,87.90
2023-04-11T02:19:46.870Z,87.70
2023-04-11T02:22:15.861Z,87.60
2023-04-11T02:24:43.860Z,87.90
2023-04-11T02:27:12.610Z,87.20
2023-04-11T02:29:40.584Z,86.80
2023-04-11T02:32:08.649Z,86.50
2023-04-11T02:34:37.830Z,85.90
2023-04-11T02:37:05.633Z,85.60
2023-04-11T02:39:33.454Z,85.50
2023-04-11T02:42:01.397Z,84.80
2023-04-11T02:44:30.660Z,84.60
2023-04-11T02:46:59.376Z,84.40
2023-04-11T02:49:27.429Z,84.00
2023-04-11T02:51:56.586Z,84.00
2023-04-11T02:54:24.489Z,84.30
2023-04-11T02:56:52.673Z,83.10
2023-04-11T02:59:21.413Z,83.30
2023-04-11T03:01:49.692Z,83.10
2023-04-11T03:04:17.634Z,82.70
2023-04-11T03:06:45.534Z,83.20
2023-04-11T03:09:15.075Z,83.10
2023-04-11T03:11:43.033Z,83.10
2023-04-11T03:14:11.073Z,83.50
2023-04-11T03:16:38.900Z,83.50
2023-04-11T03:19:06.826Z,83.70
2023-04-11T03:21:34.657Z,83.80
2023-04-11T03:24:02.730Z,83.90
2023-04-11T03:26:32.314Z,83.80
2023-04-11T03:29:00.276Z,83.80
2023-04-11T03:31:28.934Z,83.90
2023-04-11T03:33:56.824Z,83.90
2023-04-11T03:36:26.533Z,83.70
2023-04-11T03:38:54.552Z,83.60
2023-04-11T03:41:22.643Z,83.50
2023-04-11T03:43:51.883Z,83.20
2023-04-11T03:46:19.738Z,82.90
2023-04-11T03:48:47.676Z,82.90
2023-04-11T03:51:15.817Z,82.80
2023-04-11T03:53:43.821Z,82.50
2023-04-11T03:56:12.475Z,82.80
2023-04-11T03:58:40.441Z,82.70
2023-04-11T04:01:09.701Z,82.90
2023-04-11T04:03:37.958Z,82.80
2023-04-11T04:06:06.568Z,82.70
2023-04-11T04:08:34.739Z,82.90
2023-04-11T04:11:02.580Z,83.00
2023-04-11T04:13:30.397Z,83.10
2023-04-11T04:15:58.327Z,83.30
2023-04-11T04:18:27.629Z,83.00
2023-04-11T04:20:55.512Z,83.50
2023-04-11T04:23:23.919Z,83.30
2023-04-11T04:25:51.844Z,83.20
2023-04-11T04:28:22.340Z,83.10
2023-04-11T04:30:54.134Z,83.00
2023-04-11T04:33:22.540Z,82.90
2023-04-11T04:35:52.464Z,83.10
2023-04-11T04:38:20.324Z,83.10
2023-04-11T04:40:50.471Z,83.20
2023-04-11T04:43:24.111Z,83.30
2023-04-11T04:45:52.011Z,82.80
2023-04-11T04:48:19.882Z,82.80
2023-04-11T04:50:47.730Z,82.80
2023-04-11T04:53:16.963Z,82.80
2023-04-11T04:55:45.050Z,82.40
2023-04-11T04:58:12.896Z,82.00
2023-04-11T05:00:41.146Z,81.90
2023-04-11T05:03:10.814Z,82.00
2023-04-11T05:05:38.680Z,81.80
2023-04-11T05:08:06.738Z,81.70
2023-04-11T05:10:35.913Z,81.50
2023-04-11T05:13:03.759Z,81.40
2023-04-11T05:15:31.622Z,81.80
2023-04-11T05:17:59.506Z,81.30
2023-04-11T05:20:29.632Z,81.00
2023-04-11T05:22:57.467Z,81.70
2023-04-11T05:25:25.956Z,80.80
2023-04-11T05:27:55.151Z,80.80
2023-04-11T05:30:23.304Z,80.80
2023-04-11T05:32:51.217Z,80.80
2023-04-11T05:35:19.084Z,80.60
2023-04-11T05:37:47.394Z,80.70
2023-04-11T05:40:16.151Z,80.70
2023-04-11T05:42:44.017Z,80.40
2023-04-11T05:45:14.172Z,80.70
2023-04-11T05:47:42.406Z,80.60
2023-04-11T05:50:13.057Z,80.80
2023-04-11T05:52:40.958Z,81.00
2023-04-11T05:55:09.863Z,81.10
2023-04-11T05:57:37.718Z,81.20
2023-04-11T06:00:12.826Z,81.30
2023-04-11T06:02:43.935Z,81.50
2023-04-11T06:05:12.673Z,81.70
2023-04-11T06:07:41.379Z,81.70
2023-04-11T06:10:10.890Z,81.70
2023-04-11T06:12:38.707Z,81.60
2023-04-11T06:15:09.411Z,82.00
2023-04-11T06:17:38.247Z,82.10
2023-04-11T06:20:08.843Z,82.20
2023-04-11T06:22:36.600Z,82.30
2023-04-11T06:25:05.073Z,82.20
2023-04-11T06:27:32.949Z,82.30
2023-04-11T06:30:00.926Z,82.30
2023-04-11T06:32:29.128Z,82.40
2023-04-11T06:34:57.010Z,82.20
2023-04-11T06:37:26.230Z,82.30
2023-04-11T06:39:54.027Z,82.30
2023-04-11T06:42:21.954Z,83.30
2023-04-11T06:44:50.844Z,82.40
2023-04-11T06:47:18.691Z,82.20
2023-04-11T06:49:46.622Z,82.40
2023-04-11T06:52:14.581Z,82.60
2023-04-11T06:54:43.830Z,82.40
2023-04-11T06:57:11.820Z,82.20
2023-04-11T06:59:39.801Z,81.80
2023-04-11T07:02:07.948Z,81.90
2023-04-11T07:04:36.055Z,81.70
2023-04-11T07:07:04.464Z,81.40
2023-04-11T07:09:32.885Z,80.70
2023-04-11T07:12:02.478Z,80.60
2023-04-11T07:14:30.338Z,80.40
2023-04-11T07:16:58.336Z,80.40
2023-04-11T07:19:26.225Z,80.40
2023-04-11T07:21:54.053Z,80.40
2023-04-11T07:24:22.462Z,80.10
2023-04-11T07:26:51.919Z,80.20
2023-04-11T07:29:21.456Z,79.80
2023-04-11T07:31:50.230Z,79.60
2023-04-11T07:34:18.210Z,80.90
2023-04-11T07:36:46.025Z,79.10
2023-04-11T07:39:14.836Z,78.70
2023-04-11T07:41:44.983Z,79.20
2023-04-11T07:44:12.975Z,78.00
2023-04-11T07:46:42.436Z,78.10
2023-04-11T07:49:10.782Z,77.90
2023-04-11T07:51:38.805Z,77.70
2023-04-11T07:54:07.316Z,76.00
2023-04-11T07:56:35.205Z,76.40
2023-04-11T07:59:03.311Z,76.50
2023-04-11T08:01:31.519Z,76.60
2023-04-11T08:04:01.791Z,76.80
2023-04-11T08:06:31.417Z,76.60
2023-04-11T08:09:00.791Z,76.10
2023-04-11T08:11:28.680Z,75.60
2023-04-11T08:13:56.735Z,74.80
2023-04-11T08:16:24.896Z,74.00
2023-04-11T08:18:52.781Z,74.00
2023-04-11T08:21:24.978Z,73.90
2023-04-11T08:23:52.832Z,73.70
2023-04-11T08:26:21.135Z,74.00
2023-04-11T08:28:49.190Z,73.40
2023-04-11T08:31:17.872Z,73.10
2023-04-11T08:33:45.961Z,72.60
2023-04-11T08:36:14.263Z,72.10
2023-04-11T08:38:43.848Z,73.00
2023-04-11T08:41:12.969Z,72.50
2023-04-11T08:43:41.224Z,72.40
2023-04-11T08:46:09.730Z,71.90
2023-04-11T08:48:37.540Z,71.70
2023-04-11T08:51:05.958Z,70.90
2023-04-11T08:53:38.498Z,70.50
2023-04-11T08:56:14.793Z,70.70
2023-04-11T08:58:43.680Z,70.70
2023-04-11T09:01:32.965Z,70.90
2023-04-11T09:04:02.458Z,70.50
2023-04-11T09:06:30.973Z,70.90
2023-04-11T09:08:59.648Z,68.40
2023-04-11T09:11:28.983Z,68.40
2023-04-11T09:14:11.108Z,67.60
2023-04-11T09:16:53.868Z,66.20
2023-04-11T09:19:24.963Z,67.30
2023-04-11T09:21:53.717Z,66.90
2023-04-11T09:24:22.745Z,67.60
2023-04-11T09:26:52.512Z,68.50
2023-04-11T09:29:37.486Z,68.50
2023-04-11T09:32:05.697Z,67.70
2023-04-11T09:34:37.882Z,67.70
2023-04-11T09:37:06.346Z,67.50
2023-04-11T09:39:34.144Z,67.50
2023-04-11T09:42:04.168Z,66.80
2023-04-11T09:44:39.300Z,66.30
2023-04-11T09:47:07.269Z,64.70
2023-04-11T09:49:36.398Z,64.00
2023-04-11T09:52:04.806Z,63.50
2023-04-11T09:54:33.667Z,63.40
2023-04-11T09:57:03.951Z,62.30
2023-04-11T09:59:33.605Z,61.80
2023-04-11T10:02:01.611Z,61.60
2023-04-11T10:04:29.963Z,61.50
2023-04-11T10:07:06.618Z,62.30
2023-04-11T10:09:34.521Z,63.40
2023-04-11T10:12:03.993Z,62.80
2023-04-11T10:14:43.537Z,61.70
2023-04-11T10:17:18.916Z,61.80
2023-04-11T10:19:50.571Z,62.40
2023-04-11T10:22:55.669Z,62.00
2023-04-11T10:25:24.695Z,60.20
2023-04-11T10:27:57.089Z,59.80
2023-04-11T10:30:54.715Z,58.50
2023-04-11T10:33:23.518Z,57.10
2023-04-11T10:35:58.814Z,58.90
2023-04-11T10:38:47.286Z,58.50
2023-04-11T10:41:17.179Z,57.90
2023-04-11T10:43:46.960Z,58.40
2023-04-11T10:46:22.234Z,58.90
2023-04-11T10:49:00.678Z,58.40
2023-04-11T10:51:29.435Z,58.90
2023-04-11T10:53:59.870Z,58.40
2023-04-11T10:56:55.207Z,57.70
2023-04-11T11:00:00.483Z,56.80
2023-04-11T11:02:41.631Z,57.00
2023-04-11T11:05:21.121Z,55.60
2023-04-11T11:07:51.942Z,56.00
2023-04-11T11:10:42.986Z,56.80
2023-04-11T11:13:12.026Z,56.00
2023-04-11T11:15:40.114Z,55.80
2023-04-11T11:18:16.146Z,55.80
2023-04-11T11:20:44.423Z,55.50
2023-04-11T11:23:12.975Z,57.40
2023-04-11T11:25:41.198Z,55.60
2023-04-11T11:28:10.907Z,54.60
2023-04-11T11:30:39.786Z,55.20
2023-04-11T11:33:19.889Z,55.30
2023-04-11T11:35:53.994Z,54.70
2023-04-11T11:38:23.090Z,54.40
2023-04-11T13:43:13.539Z,50.90
2023-04-11T13:45:41.655Z,49.90
2023-04-11T13:48:09.921Z,49.50
2023-04-11T13:50:39.301Z,49.60
2023-04-11T13:53:07.130Z,49.50
2023-04-11T13:55:34.956Z,49.40
2023-04-11T13:58:02.803Z,48.60
2023-04-11T14:00:31.925Z,48.70
2023-04-11T14:02:59.865Z,48.70
2023-04-11T14:05:27.711Z,48.40
2023-04-11T14:07:55.691Z,48.30
2023-04-11T14:10:23.562Z,48.00
2023-04-11T14:12:51.612Z,47.90
2023-04-11T14:15:20.550Z,47.60
2023-04-11T14:17:51.358Z,48.30
2023-04-11T14:20:19.273Z,47.00
2023-04-11T14:22:47.698Z,47.50
2023-04-11T14:25:15.909Z,46.80
2023-04-11T14:27:44.305Z,44.60
2023-04-11T14:30:13.720Z,47.50
2023-04-11T14:32:42.413Z,47.70
2023-04-11T14:35:12.282Z,47.80
2023-04-11T14:37:40.335Z,47.80
2023-04-11T14:40:11.213Z,47.90
2023-04-11T14:42:39.588Z,47.80
2023-04-11T14:45:08.635Z,47.80
2023-04-11T14:47:36.820Z,47.90
2023-04-11T14:50:05.070Z,48.40
2023-04-11T14:52:34.283Z,47.50
2023-04-11T14:55:02.144Z,47.20
2023-04-11T14:57:45.595Z,47.40
2023-04-11T15:00:18.942Z,46.60
2023-04-11T15:02:47.921Z,47.90
2023-04-11T15:05:17.847Z,47.00
2023-04-11T15:07:48.993Z,45.90
2023-04-11T15:10:23.349Z,45.80
2023-04-11T15:12:51.566Z,45.10
2023-04-11T15:15:19.320Z,46.20
2023-04-11T15:17:48.931Z,46.20
2023-04-11T15:20:19.428Z,45.20
2023-04-11T15:22:49.744Z,45.30
2023-04-11T15:25:17.643Z,44.80
2023-04-11T15:27:45.490Z,44.70
2023-04-11T15:30:13.605Z,44.80
2023-04-11T15:32:44.050Z,44.60
2023-04-11T15:35:12.363Z,44.30
2023-04-11T15:37:40.976Z,44.20
2023-04-11T15:40:15.181Z,44.10
2023-04-11T15:42:43.279Z,43.70
2023-04-11T15:45:13.085Z,44.40
2023-04-11T15:47:41.070Z,44.70
2023-04-11T15:50:10.095Z,44.00
2023-04-11T15:52:37.886Z,43.70
2023-04-11T15:55:06.844Z,43.80
2023-04-11T15:57:36.067Z,42.30
2023-04-11T16:00:08.642Z,42.80
2023-04-11T16:02:36.897Z,42.10
2023-04-11T16:05:05.607Z,42.60
2023-04-11T16:07:33.648Z,41.70
2023-04-11T16:10:01.418Z,41.40
2023-04-11T16:12:29.426Z,41.40
2023-04-11T16:14:59.068Z,41.50
2023-04-11T16:17:26.952Z,41.00
2023-04-11T16:19:54.882Z,41.20
2023-04-11T16:22:22.860Z,41.20
2023-04-11T16:24:51.565Z,39.60
2023-04-11T16:27:19.847Z,39.50
2023-04-11T16:29:48.016Z,39.90
2023-04-11T16:32:18.152Z,39.30
2023-04-11T16:34:46.175Z,39.80
2023-04-11T16:37:14.396Z,40.10
2023-04-11T16:39:42.510Z,40.00
2023-04-11T16:42:11.068Z,41.00
2023-04-11T16:44:38.898Z,41.20
2023-04-11T16:47:06.788Z,41.40
2023-04-11T16:49:36.405Z,42.10
2023-04-11T16:52:04.428Z,42.30
2023-04-11T16:54:32.545Z,42.90
2023-04-11T16:57:01.519Z,42.70
2023-04-11T16:59:30.365Z,43.10
2023-04-11T17:01:58.348Z,43.60
2023-04-11T17:04:27.121Z,43.70
2023-04-11T17:06:57.377Z,44.40
2023-04-11T17:09:25.274Z,44.20
2023-04-11T17:11:53.206Z,44.70
2023-04-11T17:14:21.106Z,44.70
2023-04-11T17:16:49.105Z,45.30
2023-04-11T17:19:17.092Z,45.70
2023-04-11T17:21:44.970Z,46.00
2023-04-11T17:24:14.393Z,46.10
2023-04-11T17:26:42.377Z,46.20
2023-04-11T17:29:10.978Z,46.50
2023-04-11T17:31:39.139Z,46.50
2023-04-11T17:34:07.120Z,46.80
2023-04-11T17:36:42.343Z,46.90
2023-04-11T17:39:11.189Z,47.20
2023-04-11T17:41:40.533Z,47.20
2023-04-11T17:44:08.462Z,47.10
2023-04-11T17:46:36.664Z,47.40
2023-04-11T17:49:04.630Z,47.80
2023-04-11T17:51:32.440Z,47.80
2023-04-11T17:54:00.618Z,47.90
2023-04-11T17:56:28.494Z,48.50
2023-04-11T17:58:57.655Z,48.70
2023-04-11T18:01:31.900Z,49.00
2023-04-11T18:04:01.343Z,49.00
2023-04-11T18:06:29.909Z,49.20
2023-04-11T18:08:57.724Z,49.50
2023-04-11T18:11:25.613Z,49.70
2023-04-11T18:13:53.544Z,49.60
2023-04-11T18:16:22.777Z,49.30
2023-04-11T18:18:50.803Z,49.80
2023-04-11T18:21:18.652Z,50.10
2023-04-11T18:23:46.538Z,50.40
2023-04-11T18:26:14.527Z,50.50
2023-04-11T18:28:42.574Z,50.50
2023-04-11T18:31:10.990Z,50.50
2023-04-11T18:33:44.073Z,50.50
2023-04-11T18:36:13.529Z,50.40
2023-04-11T18:38:41.490Z,50.50
2023-04-11T18:41:09.900Z,50.50
2023-04-11T18:43:38.756Z,50.50
2023-04-11T18:46:07.676Z,50.60
2023-04-11T18:48:35.604Z,50.70
2023-04-11T18:51:05.766Z,50.70
2023-04-11T18:53:34.789Z,51.00
2023-04-11T18:56:03.497Z,51.00
2023-04-11T18:58:33.588Z,51.20
2023-04-11T19:01:13.998Z,51.20
2023-04-11T19:03:43.934Z,51.30
2023-04-11T19:06:14.337Z,51.40
2023-04-11T19:08:42.270Z,51.80
2023-04-11T19:11:10.807Z,51.90
2023-04-11T19:13:38.846Z,51.90
2023-04-11T19:16:07.344Z,52.20
2023-04-11T19:18:35.894Z,52.70
2023-04-11T19:21:03.841Z,52.90
2023-04-11T19:23:33.267Z,52.80
2023-04-11T19:26:02.213Z,53.40
2023-04-11T19:28:30.157Z,53.60
2023-04-11T19:30:57.967Z,53.80
2023-04-11T19:33:26.163Z,54.30
2023-04-11T19:35:54.277Z,54.40
2023-04-11T19:38:22.359Z,54.40
2023-04-11T19:40:51.552Z,54.40
2023-04-11T19:43:19.727Z,54.60
2023-04-11T19:45:47.832Z,54.60
2023-04-11T19:48:16.194Z,54.60
2023-04-11T19:50:44.610Z,54.50
2023-04-11T19:53:12.544Z,54.40
2023-04-11T19:55:41.196Z,54.40
2023-04-11T19:58:11.156Z,54.60
2023-04-11T20:00:38.971Z,54.90
2023-04-11T20:03:08.038Z,55.00
2023-04-11T20:05:36.252Z,54.90
2023-04-11T20:08:04.229Z,55.20
2023-04-11T20:10:32.129Z,55.30
2023-04-11T20:12:59.956Z,55.40
2023-04-11T20:15:29.638Z,55.40
2023-04-11T20:17:57.580Z,55.40
2023-04-11T20:20:27.754Z,55.50
2023-04-11T20:22:55.668Z,55.60
2023-04-11T20:25:23.870Z,55.60
2023-04-11T20:27:51.892Z,55.80
2023-04-11T20:30:19.799Z,55.70
2023-04-11T20:32:48.976Z,56.10
2023-04-11T20:35:16.879Z,56.30
2023-04-11T20:37:44.991Z,56.40
2023-04-11T20:40:14.371Z,56.50
2023-04-11T20:42:42.922Z,56.60
2023-04-11T20:45:12.700Z,56.50
2023-04-11T20:47:41.384Z,56.70
2023-04-11T20:50:14.256Z,57.10
2023-04-11T20:52:43.752Z,57.00
2023-04-11T20:55:13.644Z,57.10
2023-04-11T20:57:41.656Z,57.30
2023-04-11T21:00:14.678Z,57.20
2023-04-11T21:02:44.366Z,57.30
2023-04-11T21:05:14.728Z,57.60
2023-04-11T21:07:43.574Z,57.50
2023-04-11T21:10:12.985Z,57.80
2023-04-11T21:12:41.972Z,57.80
2023-04-11T21:15:11.741Z,57.40
2023-04-11T21:17:40.469Z,58.10
2023-04-11T21:20:11.054Z,58.00
2023-04-11T21:22:40.575Z,58.40
2023-04-11T21:25:09.792Z,58.50
2023-04-11T21:27:37.670Z,58.50
2023-04-11T21:30:07.720Z,59.30
2023-04-11T21:32:35.692Z,58.80
2023-04-11T21:35:04.953Z,58.80
2023-04-11T21:37:32.817Z,59.00
2023-04-11T21:40:02.234Z,59.00
2023-04-11T21:42:30.308Z,59.30
2023-04-11T21:44:58.375Z,59.20
2023-04-11T21:47:26.383Z,59.20
2023-04-11T21:49:54.379Z,59.50
2023-04-11T21:52:22.534Z,59.50
2023-04-11T21:54:50.981Z,59.80
2023-04-11T21:57:20.643Z,59.90
2023-04-11T21:59:49.549Z,60.00
2023-04-11T22:02:17.574Z,60.40
2023-04-11T22:05:03.877Z,60.50
2023-04-11T22:07:39.028Z,60.90
2023-04-11T22:10:12.049Z,61.10
2023-04-11T22:12:41.992Z,61.60
2023-04-11T22:15:13.005Z,61.80
2023-04-11T22:17:44.139Z,61.90
2023-04-11T22:20:13.259Z,62.10
2023-04-11T22:22:42.054Z,62.60
2023-04-11T22:25:11.506Z,62.70
2023-04-11T22:27:40.836Z,63.10
2023-04-11T22:30:09.720Z,63.60
2023-04-11T22:32:38.095Z,63.90
2023-04-11T22:35:08.268Z,63.70
2023-04-11T22:37:36.131Z,63.90
2023-04-11T22:40:06.174Z,64.20
2023-04-11T22:42:33.968Z,64.20
2023-04-11T22:45:03.293Z,64.60
2023-04-11T22:47:32.539Z,64.80
2023-04-11T22:50:00.459Z,65.00
2023-04-11T22:52:30.112Z,65.10
2023-04-11T22:54:57.979Z,65.60
2023-04-11T22:57:25.984Z,66.00
2023-04-11T22:59:53.826Z,65.60
2023-04-11T23:02:24.547Z,66.10
2023-04-11T23:04:52.544Z,66.70
2023-04-11T23:07:20.613Z,66.60
2023-04-11T23:09:48.950Z,66.70
2023-04-11T23:12:16.990Z,67.00
2023-04-11T23:14:46.566Z,67.30
2023-04-11T23:17:15.662Z,67.60
2023-04-11T23:19:45.250Z,67.60
2023-04-11T23:22:13.652Z,68.50
2023-04-11T23:24:41.486Z,68.00
2023-04-11T23:27:09.959Z,68.10
2023-04-11T23:29:37.896Z,68.40
2023-04-11T23:32:06.712Z,68.40
2023-04-11T23:34:34.923Z,68.80
2023-04-11T23:37:04.104Z,69.10
2023-04-11T23:39:31.940Z,69.30
2023-04-11T23:41:59.796Z,69.60
2023-04-11T23:44:27.755Z,69.50
2023-04-11T23:46:55.792Z,69.70
2023-04-11T23:49:23.629Z,70.00
2023-04-11T23:51:51.685Z,70.70
2023-04-11T23:54:20.918Z,70.50
2023-04-11T23:56:48.962Z,71.10
2023-04-11T23:59:17.603Z,71.10
